sensor_id;sensor_type;location;lat;lon;timestamp;temperature;humidity
12893;DHT22;6514;48.606;9.222;2023-02-28T00:01:22;-1.90;99.90
12893;DHT22;6514;48.606;9.222;2023-02-28T00:03:49;-1.90;99.90
12893;DHT22;6514;48.606;9.222;2023-02-28T00:06:16;-1.80;99.90
12893;DHT22;6514;48.606;9.222;2023-02-28T00:08:44;-2.00;99.90
12893;DHT22;6514;48.606;9.222;2023-02-28T00:11:13;-2.00;99.90
12893;DHT22;6514;48.606;9.222;2023-02-28T00:16:10;-2.10;99.90
12893;DHT22;6514;48.606;9.222;2023-02-28T00:18:38;-2.10;99.90
12893;DHT22;6514;48.606;9.222;2023-02-28T00:21:06;-2.00;99.90
12893;DHT22;6514;48.606;9.222;2023-02-28T00:23:34;-2.10;99.90
12893;DHT22;6514;48.606;9.222;2023-02-28T00:26:03;-2.10;99.90
12893;DHT22;6514;48.606;9.222;2023-02-28T00:28:30;-2.10;99.90
12893;DHT22;6514;48.606;9.222;2023-02-28T00:30:57;-2.10;99.90
12893;DHT22;6514;48.606;9.222;2023-02-28T00:33:25;-2.20;99.90
12893;DHT22;6514;48.606;9.222;2023-02-28T00:35:52;-2.20;99.90
12893;DHT22;6514;48.606;9.222;2023-02-28T00:38:27;-2.20;99.90
12893;DHT22;6514;48.606;9.222;2023-02-28T00:40:54;-2.20;99.90
12893;DHT22;6514;48.606;9.222;2023-02-28T00:43:22;-2.20;99.90
12893;DHT22;6514;48.606;9.222;2023-02-28T00:45:49;-2.20;99.90
12893;DHT22;6514;48.606;9.222;2023-02-28T00:48:16;-2.20;99.90
12893;DHT22;6514;48.606;9.222;2023-02-28T00:50:42;-2.30;99.90
12893;DHT22;6514;48.606;9.222;2023-02-28T00:53:09;-2.30;99.90
12893;DHT22;6514;48.606;9.222;2023-02-28T00:55:36;-2.20;99.90
12893;DHT22;6514;48.606;9.222;2023-02-28T00:58:03;-2.30;99.90
12893;DHT22;6514;48.606;9.222;2023-02-28T01:00:31;-2.20;99.90
12893;DHT22;6514;48.606;9.222;2023-02-28T01:02:58;-2.20;99.90
12893;DHT22;6514;48.606;9.222;2023-02-28T01:05:25;-2.20;99.90
12893;DHT22;6514;48.606;9.222;2023-02-28T01:07:52;-2.20;99.90
12893;DHT22;6514;48.606;9.222;2023-02-28T01:10:19;-2.10;99.90
12893;DHT22;6514;48.606;9.222;2023-02-28T01:12:49;-2.10;99.90
12893;DHT22;6514;48.606;9.222;2023-02-28T01:15:16;-2.20;99.90
12893;DHT22;6514;48.606;9.222;2023-02-28T01:17:44;-2.10;99.90
12893;DHT22;6514;48.606;9.222;2023-02-28T01:20:11;-2.10;99.90
12893;DHT22;6514;48.606;9.222;2023-02-28T01:22:38;-2.20;99.90
12893;DHT22;6514;48.606;9.222;2023-02-28T01:25:06;-2.20;99.90
12893;DHT22;6514;48.606;9.222;2023-02-28T01:27:33;-2.20;99.90
12893;DHT22;6514;48.606;9.222;2023-02-28T01:30:01;-2.20;99.90
12893;DHT22;6514;48.606;9.222;2023-02-28T01:32:28;-2.20;99.90
12893;DHT22;6514;48.606;9.222;2023-02-28T01:34:56;-2.20;99.90
12893;DHT22;6514;48.606;9.222;2023-02-28T01:37:23;-2.30;99.90
12893;DHT22;6514;48.606;9.222;2023-02-28T01:39:50;-2.30;99.90
12893;DHT22;6514;48.606;9.222;2023-02-28T01:42:17;-2.20;99.90
12893;DHT22;6514;48.606;9.222;2023-02-28T01:45:03;-2.30;99.90
12893;DHT22;6514;48.606;9.222;2023-02-28T01:47:33;-2.30;99.90
12893;DHT22;6514;48.606;9.222;2023-02-28T01:50:05;-2.30;99.90
12893;DHT22;6514;48.606;9.222;2023-02-28T01:52:35;-2.30;99.90
12893;DHT22;6514;48.606;9.222;2023-02-28T01:55:04;-2.30;99.90
12893;DHT22;6514;48.606;9.222;2023-02-28T01:57:35;-2.30;99.90
12893;DHT22;6514;48.606;9.222;2023-02-28T02:00:07;-2.30;99.90
12893;DHT22;6514;48.606;9.222;2023-02-28T02:02:39;-2.30;99.90
12893;DHT22;6514;48.606;9.222;2023-02-28T02:05:10;-2.30;99.90
12893;DHT22;6514;48.606;9.222;2023-02-28T02:07:40;-2.30;99.90
12893;DHT22;6514;48.606;9.222;2023-02-28T02:10:12;-2.30;99.90
12893;DHT22;6514;48.606;9.222;2023-02-28T02:13:14;-2.20;99.90
12893;DHT22;6514;48.606;9.222;2023-02-28T02:15:53;-2.20;99.90
12893;DHT22;6514;48.606;9.222;2023-02-28T02:18:30;-2.20;99.90
12893;DHT22;6514;48.606;9.222;2023-02-28T02:21:27;-2.10;99.90
12893;DHT22;6514;48.606;9.222;2023-02-28T02:27:26;-2.10;99.90
12893;DHT22;6514;48.606;9.222;2023-02-28T02:33:10;-2.00;99.90
12893;DHT22;6514;48.606;9.222;2023-02-28T02:35:47;-2.00;99.90
12893;DHT22;6514;48.606;9.222;2023-02-28T02:38:22;-1.90;99.90
12893;DHT22;6514;48.606;9.222;2023-02-28T02:40:56;-1.90;99.90
12893;DHT22;6514;48.606;9.222;2023-02-28T02:43:28;-1.90;99.90
12893;DHT22;6514;48.606;9.222;2023-02-28T02:45:57;-1.90;99.90
12893;DHT22;6514;48.606;9.222;2023-02-28T02:48:30;-1.80;99.90
12893;DHT22;6514;48.606;9.222;2023-02-28T02:51:01;-1.90;99.90
12893;DHT22;6514;48.606;9.222;2023-02-28T02:53:33;-1.90;99.90
12893;DHT22;6514;48.606;9.222;2023-02-28T02:56:02;-1.90;99.90
12893;DHT22;6514;48.606;9.222;2023-02-28T02:58:33;-1.90;99.90
12893;DHT22;6514;48.606;9.222;2023-02-28T03:01:02;-1.90;99.90
12893;DHT22;6514;48.606;9.222;2023-02-28T03:03:31;-1.90;99.90
12893;DHT22;6514;48.606;9.222;2023-02-28T03:06:01;-1.90;99.90
12893;DHT22;6514;48.606;9.222;2023-02-28T03:08:31;-1.90;99.90
12893;DHT22;6514;48.606;9.222;2023-02-28T03:11:01;-1.90;99.90
12893;DHT22;6514;48.606;9.222;2023-02-28T03:13:50;-1.90;99.90
12893;DHT22;6514;48.606;9.222;2023-02-28T03:16:37;-1.80;99.90
12893;DHT22;6514;48.606;9.222;2023-02-28T03:19:38;-1.80;99.90
12893;DHT22;6514;48.606;9.222;2023-02-28T03:22:34;-1.80;99.90
12893;DHT22;6514;48.606;9.222;2023-02-28T03:25:08;-1.80;99.90
12893;DHT22;6514;48.606;9.222;2023-02-28T03:27:39;-1.70;99.90
12893;DHT22;6514;48.606;9.222;2023-02-28T03:30:12;-1.70;99.90
12893;DHT22;6514;48.606;9.222;2023-02-28T03:32:46;-1.70;99.90
12893;DHT22;6514;48.606;9.222;2023-02-28T03:35:18;-1.70;99.90
12893;DHT22;6514;48.606;9.222;2023-02-28T03:37:52;-1.60;99.90
12893;DHT22;6514;48.606;9.222;2023-02-28T03:40:22;-1.70;99.90
12893;DHT22;6514;48.606;9.222;2023-02-28T03:42:57;-1.60;99.90
12893;DHT22;6514;48.606;9.222;2023-02-28T03:45:27;-1.60;99.90
12893;DHT22;6514;48.606;9.222;2023-02-28T03:47:59;-1.60;99.90
12893;DHT22;6514;48.606;9.222;2023-02-28T03:50:31;-1.60;99.90
12893;DHT22;6514;48.606;9.222;2023-02-28T03:53:07;-1.60;99.90
12893;DHT22;6514;48.606;9.222;2023-02-28T03:55:39;-1.60;99.90
12893;DHT22;6514;48.606;9.222;2023-02-28T03:58:12;-1.50;99.90
12893;DHT22;6514;48.606;9.222;2023-02-28T04:00:46;-1.60;99.90
12893;DHT22;6514;48.606;9.222;2023-02-28T04:03:14;-1.60;99.90
12893;DHT22;6514;48.606;9.222;2023-02-28T04:05:50;-1.60;99.90
12893;DHT22;6514;48.606;9.222;2023-02-28T04:08:19;-1.60;99.90
12893;DHT22;6514;48.606;9.222;2023-02-28T04:10:51;-1.60;99.90
12893;DHT22;6514;48.606;9.222;2023-02-28T04:13:20;-1.60;99.90
12893;DHT22;6514;48.606;9.222;2023-02-28T04:15:46;-1.60;99.90
12893;DHT22;6514;48.606;9.222;2023-02-28T04:18:13;-1.60;99.90
12893;DHT22;6514;48.606;9.222;2023-02-28T04:20:40;-1.60;99.90
12893;DHT22;6514;48.606;9.222;2023-02-28T04:23:07;-1.60;99.90
12893;DHT22;6514;48.606;9.222;2023-02-28T04:25:35;-1.50;99.90
12893;DHT22;6514;48.606;9.222;2023-02-28T04:28:02;-1.50;99.90
12893;DHT22;6514;48.606;9.222;2023-02-28T04:30:29;-1.50;99.90
12893;DHT22;6514;48.606;9.222;2023-02-28T04:32:58;-1.50;99.90
12893;DHT22;6514;48.606;9.222;2023-02-28T04:35:24;-1.50;99.90
12893;DHT22;6514;48.606;9.222;2023-02-28T04:37:51;-1.50;99.90
12893;DHT22;6514;48.606;9.222;2023-02-28T04:40:18;-1.50;99.90
12893;DHT22;6514;48.606;9.222;2023-02-28T04:42:47;-1.50;99.90
12893;DHT22;6514;48.606;9.222;2023-02-28T04:45:14;-1.50;99.90
12893;DHT22;6514;48.606;9.222;2023-02-28T04:47:42;-1.50;99.90
12893;DHT22;6514;48.606;9.222;2023-02-28T04:50:10;-1.50;99.90
12893;DHT22;6514;48.606;9.222;2023-02-28T04:52:37;-1.50;99.90
12893;DHT22;6514;48.606;9.222;2023-02-28T04:55:05;-1.50;99.90
12893;DHT22;6514;48.606;9.222;2023-02-28T04:57:32;-1.50;99.90
12893;DHT22;6514;48.606;9.222;2023-02-28T05:00:00;-1.50;99.90
12893;DHT22;6514;48.606;9.222;2023-02-28T05:02:35;-1.40;99.90
12893;DHT22;6514;48.606;9.222;2023-02-28T05:05:02;-1.40;99.90
12893;DHT22;6514;48.606;9.222;2023-02-28T05:07:29;-1.40;99.90
12893;DHT22;6514;48.606;9.222;2023-02-28T05:09:56;-1.50;99.90
12893;DHT22;6514;48.606;9.222;2023-02-28T05:12:23;-1.40;99.90
12893;DHT22;6514;48.606;9.222;2023-02-28T05:14:49;-1.40;99.90
12893;DHT22;6514;48.606;9.222;2023-02-28T05:17:18;-1.40;99.90
12893;DHT22;6514;48.606;9.222;2023-02-28T05:19:44;-1.40;99.90
12893;DHT22;6514;48.606;9.222;2023-02-28T05:22:15;-1.40;99.90
12893;DHT22;6514;48.606;9.222;2023-02-28T05:24:42;-1.40;99.90
12893;DHT22;6514;48.606;9.222;2023-02-28T05:27:10;-1.40;99.90
12893;DHT22;6514;48.606;9.222;2023-02-28T05:29:37;-1.40;99.90
12893;DHT22;6514;48.606;9.222;2023-02-28T05:32:09;-1.40;99.90
12893;DHT22;6514;48.606;9.222;2023-02-28T05:34:38;-1.40;99.90
12893;DHT22;6514;48.606;9.222;2023-02-28T05:37:05;-1.40;99.90
12893;DHT22;6514;48.606;9.222;2023-02-28T05:39:32;-1.40;99.90
12893;DHT22;6514;48.606;9.222;2023-02-28T05:42:00;-1.40;99.90
12893;DHT22;6514;48.606;9.222;2023-02-28T05:44:27;-1.40;99.90
12893;DHT22;6514;48.606;9.222;2023-02-28T05:46:54;-1.40;99.90
12893;DHT22;6514;48.606;9.222;2023-02-28T05:49:20;-1.30;99.90
12893;DHT22;6514;48.606;9.222;2023-02-28T05:51:49;-1.30;99.90
12893;DHT22;6514;48.606;9.222;2023-02-28T05:54:16;-1.30;99.90
12893;DHT22;6514;48.606;9.222;2023-02-28T05:56:42;-1.30;99.90
12893;DHT22;6514;48.606;9.222;2023-02-28T05:59:11;-1.30;99.90
12893;DHT22;6514;48.606;9.222;2023-02-28T06:01:41;-1.30;99.90
12893;DHT22;6514;48.606;9.222;2023-02-28T06:04:11;-1.30;99.90
12893;DHT22;6514;48.606;9.222;2023-02-28T06:06:39;-1.30;99.90
12893;DHT22;6514;48.606;9.222;2023-02-28T06:09:07;-1.30;99.90
12893;DHT22;6514;48.606;9.222;2023-02-28T06:11:34;-1.30;99.90
12893;DHT22;6514;48.606;9.222;2023-02-28T06:14:02;-1.30;99.90
12893;DHT22;6514;48.606;9.222;2023-02-28T06:16:30;-1.30;99.90
12893;DHT22;6514;48.606;9.222;2023-02-28T06:18:58;-1.30;99.90
12893;DHT22;6514;48.606;9.222;2023-02-28T06:21:26;-1.30;99.90
12893;DHT22;6514;48.606;9.222;2023-02-28T06:23:54;-1.20;99.90
12893;DHT22;6514;48.606;9.222;2023-02-28T06:26:23;-1.20;99.90
12893;DHT22;6514;48.606;9.222;2023-02-28T06:28:50;-1.20;99.90
12893;DHT22;6514;48.606;9.222;2023-02-28T06:31:18;-1.20;99.90
12893;DHT22;6514;48.606;9.222;2023-02-28T06:33:45;-1.20;99.90
12893;DHT22;6514;48.606;9.222;2023-02-28T06:36:13;-1.10;99.90
12893;DHT22;6514;48.606;9.222;2023-02-28T06:38:41;-1.10;99.90
12893;DHT22;6514;48.606;9.222;2023-02-28T06:41:09;-1.10;99.90
12893;DHT22;6514;48.606;9.222;2023-02-28T06:43:39;-1.10;99.90
12893;DHT22;6514;48.606;9.222;2023-02-28T06:46:08;-1.10;99.90
12893;DHT22;6514;48.606;9.222;2023-02-28T06:48:35;-1.10;99.90
12893;DHT22;6514;48.606;9.222;2023-02-28T06:51:04;-1.00;99.90
12893;DHT22;6514;48.606;9.222;2023-02-28T06:53:31;-1.00;99.90
12893;DHT22;6514;48.606;9.222;2023-02-28T06:55:58;-1.00;99.90
12893;DHT22;6514;48.606;9.222;2023-02-28T06:58:25;-1.00;99.90
12893;DHT22;6514;48.606;9.222;2023-02-28T07:00:53;-1.00;99.90
12893;DHT22;6514;48.606;9.222;2023-02-28T07:03:20;-1.00;99.90
12893;DHT22;6514;48.606;9.222;2023-02-28T07:05:47;-0.90;99.90
12893;DHT22;6514;48.606;9.222;2023-02-28T07:08:14;-0.90;99.90
12893;DHT22;6514;48.606;9.222;2023-02-28T07:10:41;-0.90;99.90
12893;DHT22;6514;48.606;9.222;2023-02-28T07:13:09;-0.90;99.90
12893;DHT22;6514;48.606;9.222;2023-02-28T07:15:36;-0.90;99.90
12893;DHT22;6514;48.606;9.222;2023-02-28T07:18:04;-0.80;99.90
12893;DHT22;6514;48.606;9.222;2023-02-28T07:20:31;-0.80;99.90
12893;DHT22;6514;48.606;9.222;2023-02-28T07:22:58;-0.80;99.90
12893;DHT22;6514;48.606;9.222;2023-02-28T07:25:26;-0.80;99.90
12893;DHT22;6514;48.606;9.222;2023-02-28T07:27:54;-0.80;99.90
12893;DHT22;6514;48.606;9.222;2023-02-28T07:30:21;-0.90;99.90
12893;DHT22;6514;48.606;9.222;2023-02-28T07:32:48;-0.80;99.90
12893;DHT22;6514;48.606;9.222;2023-02-28T07:35:16;-0.80;99.90
12893;DHT22;6514;48.606;9.222;2023-02-28T07:37:43;-0.80;99.90
12893;DHT22;6514;48.606;9.222;2023-02-28T07:40:13;-0.80;99.90
12893;DHT22;6514;48.606;9.222;2023-02-28T07:42:41;-0.70;99.90
12893;DHT22;6514;48.606;9.222;2023-02-28T07:45:09;-0.70;99.90
12893;DHT22;6514;48.606;9.222;2023-02-28T07:47:37;-0.70;99.90
12893;DHT22;6514;48.606;9.222;2023-02-28T07:50:05;-0.70;99.90
12893;DHT22;6514;48.606;9.222;2023-02-28T07:52:34;-0.70;99.90
12893;DHT22;6514;48.606;9.222;2023-02-28T07:55:01;-0.70;99.90
12893;DHT22;6514;48.606;9.222;2023-02-28T07:57:27;-0.60;99.90
12893;DHT22;6514;48.606;9.222;2023-02-28T07:59:54;-0.60;99.90
12893;DHT22;6514;48.606;9.222;2023-02-28T08:02:21;-0.60;99.90
12893;DHT22;6514;48.606;9.222;2023-02-28T08:04:48;-0.60;99.90
12893;DHT22;6514;48.606;9.222;2023-02-28T08:07:16;-0.50;99.90
12893;DHT22;6514;48.606;9.222;2023-02-28T08:09:45;-0.50;99.90
12893;DHT22;6514;48.606;9.222;2023-02-28T08:12:12;-0.40;99.90
12893;DHT22;6514;48.606;9.222;2023-02-28T08:14:39;-0.40;99.90
12893;DHT22;6514;48.606;9.222;2023-02-28T08:17:06;-0.30;99.90
12893;DHT22;6514;48.606;9.222;2023-02-28T08:19:33;-0.30;99.90
12893;DHT22;6514;48.606;9.222;2023-02-28T08:22:00;-0.30;99.90
12893;DHT22;6514;48.606;9.222;2023-02-28T08:24:27;-0.30;99.90
12893;DHT22;6514;48.606;9.222;2023-02-28T08:26:55;-0.20;99.90
12893;DHT22;6514;48.606;9.222;2023-02-28T08:29:22;-0.20;99.90
12893;DHT22;6514;48.606;9.222;2023-02-28T08:31:49;-0.10;99.90
12893;DHT22;6514;48.606;9.222;2023-02-28T08:34:16;-0.10;99.90
12893;DHT22;6514;48.606;9.222;2023-02-28T08:36:44;0.00;99.90
12893;DHT22;6514;48.606;9.222;2023-02-28T08:39:11;0.00;99.90
12893;DHT22;6514;48.606;9.222;2023-02-28T08:41:38;0.00;99.90
12893;DHT22;6514;48.606;9.222;2023-02-28T08:44:06;0.10;99.90
12893;DHT22;6514;48.606;9.222;2023-02-28T08:46:33;0.20;99.90
12893;DHT22;6514;48.606;9.222;2023-02-28T08:49:00;0.20;99.90
12893;DHT22;6514;48.606;9.222;2023-02-28T08:51:28;0.20;99.90
12893;DHT22;6514;48.606;9.222;2023-02-28T08:54:01;0.30;99.90
12893;DHT22;6514;48.606;9.222;2023-02-28T08:56:28;0.40;99.90
12893;DHT22;6514;48.606;9.222;2023-02-28T08:58:56;-0.90;99.90
12893;DHT22;6514;48.606;9.222;2023-02-28T09:01:26;0.40;99.90
12893;DHT22;6514;48.606;9.222;2023-02-28T09:03:58;0.50;99.90
12893;DHT22;6514;48.606;9.222;2023-02-28T09:06:26;0.60;99.90
12893;DHT22;6514;48.606;9.222;2023-02-28T09:08:57;0.60;99.90
12893;DHT22;6514;48.606;9.222;2023-02-28T09:11:27;0.60;99.90
12893;DHT22;6514;48.606;9.222;2023-02-28T09:13:54;0.60;99.90
12893;DHT22;6514;48.606;9.222;2023-02-28T09:16:22;0.60;99.90
12893;DHT22;6514;48.606;9.222;2023-02-28T09:18:50;1.70;99.90
12893;DHT22;6514;48.606;9.222;2023-02-28T09:21:18;0.80;99.90
12893;DHT22;6514;48.606;9.222;2023-02-28T09:23:46;1.00;99.90
12893;DHT22;6514;48.606;9.222;2023-02-28T09:26:14;1.00;99.90
12893;DHT22;6514;48.606;9.222;2023-02-28T09:28:41;1.10;99.90
12893;DHT22;6514;48.606;9.222;2023-02-28T09:31:12;1.10;99.90
12893;DHT22;6514;48.606;9.222;2023-02-28T09:33:40;1.10;99.90
12893;DHT22;6514;48.606;9.222;2023-02-28T09:36:08;1.10;99.90
12893;DHT22;6514;48.606;9.222;2023-02-28T09:38:35;1.20;99.90
12893;DHT22;6514;48.606;9.222;2023-02-28T09:41:12;1.30;99.90
12893;DHT22;6514;48.606;9.222;2023-02-28T09:43:45;1.30;99.90
12893;DHT22;6514;48.606;9.222;2023-02-28T09:46:21;1.40;99.90
12893;DHT22;6514;48.606;9.222;2023-02-28T09:48:52;1.40;99.90
12893;DHT22;6514;48.606;9.222;2023-02-28T09:51:34;1.50;99.90
12893;DHT22;6514;48.606;9.222;2023-02-28T09:54:03;1.60;99.90
12893;DHT22;6514;48.606;9.222;2023-02-28T09:56:36;1.60;99.90
12893;DHT22;6514;48.606;9.222;2023-02-28T09:59:10;1.50;99.90
12893;DHT22;6514;48.606;9.222;2023-02-28T10:01:44;1.60;99.90
12893;DHT22;6514;48.606;9.222;2023-02-28T10:04:25;1.60;99.90
12893;DHT22;6514;48.606;9.222;2023-02-28T10:06:57;1.70;99.90
12893;DHT22;6514;48.606;9.222;2023-02-28T10:09:26;2.00;99.90
12893;DHT22;6514;48.606;9.222;2023-02-28T10:12:02;1.90;99.90
12893;DHT22;6514;48.606;9.222;2023-02-28T10:14:32;2.00;99.90
12893;DHT22;6514;48.606;9.222;2023-02-28T10:17:03;2.90;99.90
12893;DHT22;6514;48.606;9.222;2023-02-28T10:19:35;2.20;99.90
12893;DHT22;6514;48.606;9.222;2023-02-28T10:22:13;2.30;99.90
12893;DHT22;6514;48.606;9.222;2023-02-28T10:24:42;2.30;99.90
12893;DHT22;6514;48.606;9.222;2023-02-28T10:27:14;2.50;99.90
12893;DHT22;6514;48.606;9.222;2023-02-28T10:29:45;3.20;99.90
12893;DHT22;6514;48.606;9.222;2023-02-28T10:32:15;2.50;99.90
12893;DHT22;6514;48.606;9.222;2023-02-28T10:34:42;2.60;99.90
12893;DHT22;6514;48.606;9.222;2023-02-28T10:37:11;2.60;99.90
12893;DHT22;6514;48.606;9.222;2023-02-28T10:39:41;2.50;99.90
12893;DHT22;6514;48.606;9.222;2023-02-28T10:42:23;2.60;99.90
12893;DHT22;6514;48.606;9.222;2023-02-28T10:45:06;2.70;99.90
12893;DHT22;6514;48.606;9.222;2023-02-28T10:47:34;2.90;99.90
12893;DHT22;6514;48.606;9.222;2023-02-28T10:50:02;2.90;99.90
12893;DHT22;6514;48.606;9.222;2023-02-28T10:52:37;2.90;99.90
12893;DHT22;6514;48.606;9.222;2023-02-28T10:55:20;3.00;99.90
12893;DHT22;6514;48.606;9.222;2023-02-28T10:57:47;3.10;99.90
12893;DHT22;6514;48.606;9.222;2023-02-28T11:00:17;3.30;99.90
12893;DHT22;6514;48.606;9.222;2023-02-28T11:02:44;3.40;99.90
12893;DHT22;6514;48.606;9.222;2023-02-28T11:05:27;3.50;99.90
12893;DHT22;6514;48.606;9.222;2023-02-28T11:08:32;3.50;99.90
12893;DHT22;6514;48.606;9.222;2023-02-28T11:11:04;3.80;99.90
12893;DHT22;6514;48.606;9.222;2023-02-28T11:13:34;3.90;99.90
12893;DHT22;6514;48.606;9.222;2023-02-28T11:16:04;4.00;99.90
12893;DHT22;6514;48.606;9.222;2023-02-28T11:18:41;4.00;99.90
12893;DHT22;6514;48.606;9.222;2023-02-28T11:21:10;4.00;99.90
12893;DHT22;6514;48.606;9.222;2023-02-28T11:23:43;4.10;99.90
12893;DHT22;6514;48.606;9.222;2023-02-28T11:26:10;4.20;99.90
12893;DHT22;6514;48.606;9.222;2023-02-28T11:28:44;4.40;99.90
12893;DHT22;6514;48.606;9.222;2023-02-28T11:31:18;4.70;99.90
12893;DHT22;6514;48.606;9.222;2023-02-28T11:33:49;4.70;99.90
12893;DHT22;6514;48.606;9.222;2023-02-28T11:36:19;4.60;99.90
12893;DHT22;6514;48.606;9.222;2023-02-28T11:38:48;4.50;99.90
12893;DHT22;6514;48.606;9.222;2023-02-28T11:41:27;4.50;99.90
12893;DHT22;6514;48.606;9.222;2023-02-28T11:44:13;4.50;99.90
12893;DHT22;6514;48.606;9.222;2023-02-28T11:46:47;4.70;99.90
12893;DHT22;6514;48.606;9.222;2023-02-28T11:49:28;4.90;99.90
12893;DHT22;6514;48.606;9.222;2023-02-28T11:52:00;5.40;99.90
12893;DHT22;6514;48.606;9.222;2023-02-28T11:54:46;5.90;99.90
12893;DHT22;6514;48.606;9.222;2023-02-28T11:57:27;6.30;99.90
12893;DHT22;6514;48.606;9.222;2023-02-28T12:00:05;6.20;99.90
12893;DHT22;6514;48.606;9.222;2023-02-28T12:02:46;6.10;99.90
12893;DHT22;6514;48.606;9.222;2023-02-28T12:05:24;6.10;99.90
12893;DHT22;6514;48.606;9.222;2023-02-28T12:08:02;5.90;99.90
12893;DHT22;6514;48.606;9.222;2023-02-28T12:10:37;5.40;99.90
12893;DHT22;6514;48.606;9.222;2023-02-28T12:13:16;5.30;99.90
12893;DHT22;6514;48.606;9.222;2023-02-28T12:16:07;5.20;99.90
12893;DHT22;6514;48.606;9.222;2023-02-28T12:19:01;5.30;99.90
12893;DHT22;6514;48.606;9.222;2023-02-28T12:21:36;5.40;99.90
12893;DHT22;6514;48.606;9.222;2023-02-28T12:24:19;5.90;99.90
12893;DHT22;6514;48.606;9.222;2023-02-28T12:26:55;6.40;99.90
12893;DHT22;6514;48.606;9.222;2023-02-28T12:29:25;6.70;99.90
12893;DHT22;6514;48.606;9.222;2023-02-28T12:31:56;7.10;99.90
12893;DHT22;6514;48.606;9.222;2023-02-28T12:34:28;7.20;99.90
12893;DHT22;6514;48.606;9.222;2023-02-28T12:36:59;7.30;99.90
12893;DHT22;6514;48.606;9.222;2023-02-28T12:39:33;7.50;99.90
12893;DHT22;6514;48.606;9.222;2023-02-28T12:42:05;7.60;99.90
12893;DHT22;6514;48.606;9.222;2023-02-28T12:44:37;7.80;99.90
12893;DHT22;6514;48.606;9.222;2023-02-28T12:47:12;7.90;99.90
12893;DHT22;6514;48.606;9.222;2023-02-28T12:49:45;7.70;99.90
12893;DHT22;6514;48.606;9.222;2023-02-28T12:52:16;7.30;99.90
12893;DHT22;6514;48.606;9.222;2023-02-28T12:54:51;7.10;99.90
12893;DHT22;6514;48.606;9.222;2023-02-28T12:57:27;7.00;99.90
12893;DHT22;6514;48.606;9.222;2023-02-28T13:00:01;6.80;99.90
12893;DHT22;6514;48.606;9.222;2023-02-28T13:02:49;6.40;99.90
12893;DHT22;6514;48.606;9.222;2023-02-28T13:05:29;6.00;99.90
12893;DHT22;6514;48.606;9.222;2023-02-28T13:08:20;6.00;99.90
12893;DHT22;6514;48.606;9.222;2023-02-28T13:10:51;6.10;99.90
12893;DHT22;6514;48.606;9.222;2023-02-28T13:13:23;6.20;99.90
12893;DHT22;6514;48.606;9.222;2023-02-28T13:16:00;6.40;99.90
12893;DHT22;6514;48.606;9.222;2023-02-28T13:18:32;6.60;99.90
12893;DHT22;6514;48.606;9.222;2023-02-28T13:21:01;7.00;99.90
12893;DHT22;6514;48.606;9.222;2023-02-28T13:24:00;6.90;99.90
12893;DHT22;6514;48.606;9.222;2023-02-28T13:29:34;7.20;99.90
12893;DHT22;6514;48.606;9.222;2023-02-28T13:32:35;7.30;99.90
12893;DHT22;6514;48.606;9.222;2023-02-28T13:35:36;7.40;99.90
12893;DHT22;6514;48.606;9.222;2023-02-28T13:38:17;7.40;99.90
12893;DHT22;6514;48.606;9.222;2023-02-28T13:40:44;7.40;99.90
12893;DHT22;6514;48.606;9.222;2023-02-28T13:43:11;7.30;99.90
12893;DHT22;6514;48.606;9.222;2023-02-28T13:46:05;7.40;99.90
12893;DHT22;6514;48.606;9.222;2023-02-28T13:48:33;7.40;99.90
12893;DHT22;6514;48.606;9.222;2023-02-28T13:50:59;7.50;99.90
12893;DHT22;6514;48.606;9.222;2023-02-28T13:53:40;7.60;99.90
12893;DHT22;6514;48.606;9.222;2023-02-28T13:56:29;7.40;99.90
12893;DHT22;6514;48.606;9.222;2023-02-28T13:59:08;7.50;99.90
12893;DHT22;6514;48.606;9.222;2023-02-28T14:01:55;7.50;99.90
12893;DHT22;6514;48.606;9.222;2023-02-28T14:07:28;7.40;99.90
12893;DHT22;6514;48.606;9.222;2023-02-28T14:10:01;7.50;99.90
12893;DHT22;6514;48.606;9.222;2023-02-28T14:12:59;7.60;99.90
12893;DHT22;6514;48.606;9.222;2023-02-28T14:18:27;7.60;99.90
12893;DHT22;6514;48.606;9.222;2023-02-28T14:20:58;7.60;99.90
12893;DHT22;6514;48.606;9.222;2023-02-28T14:23:43;7.50;99.90
12893;DHT22;6514;48.606;9.222;2023-02-28T14:26:21;7.10;99.90
12893;DHT22;6514;48.606;9.222;2023-02-28T14:29:07;7.00;99.90
12893;DHT22;6514;48.606;9.222;2023-02-28T14:31:44;7.00;99.90
12893;DHT22;6514;48.606;9.222;2023-02-28T14:34:31;7.10;99.90
12893;DHT22;6514;48.606;9.222;2023-02-28T14:37:02;7.00;99.90
12893;DHT22;6514;48.606;9.222;2023-02-28T14:39:30;7.20;99.90
12893;DHT22;6514;48.606;9.222;2023-02-28T14:41:58;7.40;99.90
12893;DHT22;6514;48.606;9.222;2023-02-28T14:44:29;7.60;99.90
12893;DHT22;6514;48.606;9.222;2023-02-28T14:46:57;7.70;99.90
12893;DHT22;6514;48.606;9.222;2023-02-28T14:49:28;7.80;99.90
12893;DHT22;6514;48.606;9.222;2023-02-28T14:52:03;7.90;99.90
12893;DHT22;6514;48.606;9.222;2023-02-28T14:54:32;7.80;99.90
12893;DHT22;6514;48.606;9.222;2023-02-28T14:56:59;7.70;99.90
12893;DHT22;6514;48.606;9.222;2023-02-28T14:59:29;7.60;99.90
12893;DHT22;6514;48.606;9.222;2023-02-28T15:02:19;7.50;99.90
12893;DHT22;6514;48.606;9.222;2023-02-28T15:04:56;7.60;99.90
12893;DHT22;6514;48.606;9.222;2023-02-28T15:07:24;7.70;99.90
12893;DHT22;6514;48.606;9.222;2023-02-28T15:10:09;7.80;99.90
12893;DHT22;6514;48.606;9.222;2023-02-28T15:12:36;7.80;99.90
12893;DHT22;6514;48.606;9.222;2023-02-28T15:15:04;7.80;99.90
12893;DHT22;6514;48.606;9.222;2023-02-28T15:17:32;7.50;99.90
12893;DHT22;6514;48.606;9.222;2023-02-28T15:20:00;7.30;99.90
12893;DHT22;6514;48.606;9.222;2023-02-28T15:22:35;7.10;99.90
12893;DHT22;6514;48.606;9.222;2023-02-28T15:25:05;6.90;99.90
12893;DHT22;6514;48.606;9.222;2023-02-28T15:27:34;6.80;99.90
12893;DHT22;6514;48.606;9.222;2023-02-28T15:30:08;6.80;99.90
12893;DHT22;6514;48.606;9.222;2023-02-28T15:32:37;6.70;99.90
12893;DHT22;6514;48.606;9.222;2023-02-28T15:35:28;6.60;99.90
12893;DHT22;6514;48.606;9.222;2023-02-28T15:37:57;6.30;99.90
12893;DHT22;6514;48.606;9.222;2023-02-28T15:40:27;6.10;99.90
12893;DHT22;6514;48.606;9.222;2023-02-28T15:43:05;5.80;99.90
12893;DHT22;6514;48.606;9.222;2023-02-28T15:45:36;5.70;99.90
12893;DHT22;6514;48.606;9.222;2023-02-28T15:48:15;5.50;99.90
12893;DHT22;6514;48.606;9.222;2023-02-28T15:50:44;5.40;99.90
12893;DHT22;6514;48.606;9.222;2023-02-28T15:53:16;5.30;99.90
12893;DHT22;6514;48.606;9.222;2023-02-28T15:55:44;5.30;99.90
12893;DHT22;6514;48.606;9.222;2023-02-28T15:58:12;5.20;99.90
12893;DHT22;6514;48.606;9.222;2023-02-28T16:00:39;5.20;99.90
12893;DHT22;6514;48.606;9.222;2023-02-28T16:03:23;5.20;99.90
12893;DHT22;6514;48.606;9.222;2023-02-28T16:08:58;5.10;99.90
12893;DHT22;6514;48.606;9.222;2023-02-28T16:11:27;5.00;99.90
12893;DHT22;6514;48.606;9.222;2023-02-28T16:13:56;4.90;99.90
12893;DHT22;6514;48.606;9.222;2023-02-28T16:16:24;4.90;99.90
12893;DHT22;6514;48.606;9.222;2023-02-28T16:18:55;4.80;99.90
12893;DHT22;6514;48.606;9.222;2023-02-28T16:21:22;4.70;99.90
12893;DHT22;6514;48.606;9.222;2023-02-28T16:23:49;4.60;99.90
12893;DHT22;6514;48.606;9.222;2023-02-28T16:26:21;4.50;99.90
12893;DHT22;6514;48.606;9.222;2023-02-28T16:28:48;4.40;99.90
12893;DHT22;6514;48.606;9.222;2023-02-28T16:31:16;4.40;99.90
12893;DHT22;6514;48.606;9.222;2023-02-28T16:33:44;4.30;99.90
12893;DHT22;6514;48.606;9.222;2023-02-28T16:36:16;4.20;99.90
12893;DHT22;6514;48.606;9.222;2023-02-28T16:38:43;4.10;99.90
12893;DHT22;6514;48.606;9.222;2023-02-28T16:41:13;4.00;99.90